createdAt,value
2023-03-01T00:01:27.154Z,99.90
2023-03-01T00:03:56.387Z,99.90
2023-03-01T00:06:27.205Z,99.90
2023-03-01T00:08:55.733Z,99.90
2023-03-01T00:11:26.250Z,99.90
2023-03-01T00:13:56.494Z,99.90
2023-03-01T00:16:27.303Z,99.90
2023-03-01T00:18:56.642Z,99.90
2023-03-01T00:21:27.376Z,99.90
2023-03-01T00:23:56.182Z,99.90
2023-03-01T00:26:26.906Z,99.90
2023-03-01T00:28:56.385Z,99.90
2023-03-01T00:31:27.184Z,99.90
2023-03-01T00:33:57.997Z,99.90
2023-03-01T00:36:31.151Z,99.90
2023-03-01T00:38:59.864Z,99.90
2023-03-01T00:41:28.597Z,99.90
2023-03-01T00:43:57.008Z,99.90
2023-03-01T00:46:27.957Z,99.90
2023-03-01T00:48:56.294Z,99.90
2023-03-01T00:51:28.024Z,99.90
2023-03-01T00:54:00.157Z,99.90
2023-03-01T00:56:28.822Z,99.90
2023-03-01T00:58:57.666Z,99.90
2023-03-01T01:01:28.803Z,99.90
2023-03-01T01:03:59.174Z,99.90
2023-03-01T01:06:31.940Z,99.90
2023-03-01T01:09:00.976Z,99.90
2023-03-01T01:11:31.738Z,99.90
2023-03-01T01:14:01.131Z,99.90
2023-03-01T01:16:32.181Z,99.90
2023-03-01T01:19:00.693Z,99.90
2023-03-01T01:21:31.601Z,99.90
2023-03-01T01:24:00.038Z,99.90
2023-03-01T01:26:30.739Z,99.90
2023-03-01T01:28:59.720Z,99.90
2023-03-01T01:31:29.221Z,99.90
2023-03-01T01:33:59.164Z,99.90
2023-03-01T01:36:27.437Z,99.90
2023-03-01T01:38:57.134Z,99.90
2023-03-01T01:41:26.679Z,99.90
2023-03-01T01:44:14.173Z,99.90
2023-03-01T01:46:44.177Z,99.90
2023-03-01T01:49:26.817Z,99.90
2023-03-01T01:52:01.987Z,99.90
2023-03-01T01:54:37.587Z,99.90
2023-03-01T01:57:10.945Z,99.90
2023-03-01T01:59:40.178Z,99.90
2023-03-01T02:02:08.534Z,99.90
2023-03-01T02:04:36.899Z,99.90
2023-03-01T02:07:11.623Z,99.90
2023-03-01T02:09:41.797Z,99.90
2023-03-01T02:12:10.278Z,99.90
2023-03-01T02:14:38.559Z,99.90
2023-03-01T02:17:06.973Z,99.90
2023-03-01T02:19:51.321Z,99.90
2023-03-01T02:22:26.384Z,99.90
2023-03-01T02:25:08.107Z,99.90
2023-03-01T02:27:42.719Z,99.90
2023-03-01T02:30:14.152Z,99.90
2023-03-01T02:32:42.804Z,99.90
2023-03-01T02:35:15.402Z,99.90
2023-03-01T02:37:45.086Z,99.90
2023-03-01T02:40:18.427Z,99.90
2023-03-01T02:42:52.985Z,99.90
2023-03-01T02:45:24.105Z,99.90
2023-03-01T02:47:52.453Z,99.90
2023-03-01T02:50:37.817Z,99.90
2023-03-01T02:53:13.141Z,99.90
2023-03-01T02:55:42.298Z,99.90
2023-03-01T02:58:11.437Z,99.90
2023-03-01T03:00:46.559Z,99.90
2023-03-01T03:03:18.601Z,99.90
2023-03-01T03:05:49.367Z,99.90
2023-03-01T03:08:24.951Z,99.90
2023-03-01T03:10:54.181Z,99.90
2023-03-01T03:13:23.056Z,99.90
2023-03-01T03:15:55.134Z,99.90
2023-03-01T03:18:26.877Z,99.90
2023-03-01T03:20:56.277Z,99.90
2023-03-01T03:23:24.869Z,99.90
2023-03-01T03:25:53.137Z,99.90
2023-03-01T03:28:21.368Z,99.90
2023-03-01T03:30:50.885Z,99.90
2023-03-01T03:33:20.437Z,99.90
2023-03-01T03:35:50.523Z,99.90
2023-03-01T03:38:22.829Z,99.90
2023-03-01T03:40:52.995Z,99.90
2023-03-01T03:43:22.905Z,99.90
2023-03-01T03:45:52.414Z,99.90
2023-03-01T03:48:22.572Z,99.90
2023-03-01T03:50:52.719Z,99.90
2023-03-01T03:53:23.784Z,99.90
2023-03-01T03:55:52.591Z,99.90
2023-03-01T03:58:22.042Z,99.90
2023-03-01T04:00:52.348Z,99.90
2023-03-01T04:03:23.018Z,99.90
2023-03-01T04:05:52.016Z,99.90
2023-03-01T04:08:21.714Z,99.90
2023-03-01T04:10:51.639Z,99.90
2023-03-01T04:13:22.413Z,99.90
2023-03-01T04:15:53.017Z,99.90
2023-03-01T04:18:23.980Z,99.90
2023-03-01T04:20:56.246Z,99.90
2023-03-01T04:23:24.997Z,99.90
2023-03-01T04:25:56.512Z,99.90
2023-03-01T04:28:26.119Z,99.90
2023-03-01T04:30:55.056Z,99.90
2023-03-01T04:33:26.384Z,99.90
2023-03-01T04:35:54.663Z,99.90
2023-03-01T04:38:23.202Z,99.90
2023-03-01T04:40:51.563Z,99.90
2023-03-01T04:43:19.808Z,99.90
2023-03-01T04:45:48.148Z,99.90
2023-03-01T04:48:16.581Z,99.90
2023-03-01T04:50:46.253Z,99.90
2023-03-01T04:53:14.649Z,99.90
2023-03-01T04:55:42.917Z,99.90
2023-03-01T04:58:11.029Z,99.90
2023-03-01T05:00:39.447Z,99.90
2023-03-01T05:03:07.691Z,99.90
2023-03-01T05:05:37.357Z,99.90
2023-03-01T05:08:09.568Z,99.90
2023-03-01T05:10:39.832Z,99.90
2023-03-01T05:13:08.622Z,99.90
2023-03-01T05:15:37.561Z,99.90
2023-03-01T05:18:08.194Z,99.90
2023-03-01T05:20:37.256Z,99.90
2023-03-01T05:23:07.253Z,99.90
2023-03-01T05:25:41.050Z,99.90
2023-03-01T05:28:12.553Z,99.90
2023-03-01T05:30:41.251Z,99.90
2023-03-01T05:33:14.666Z,99.90
2023-03-01T05:35:44.535Z,99.90
2023-03-01T05:38:15.303Z,99.90
2023-03-01T05:40:44.530Z,99.90
2023-03-01T05:43:13.940Z,99.90
2023-03-01T05:46:33.095Z,99.90
2023-03-01T05:54:03.566Z,99.90
2023-03-01T05:56:32.066Z,99.90
2023-03-01T05:59:00.556Z,99.90
2023-03-01T06:01:29.179Z,99.90
2023-03-01T06:03:57.674Z,99.90
2023-03-01T06:06:27.957Z,99.90
2023-03-01T06:08:57.674Z,99.90
2023-03-01T06:11:27.417Z,99.90
2023-03-01T06:13:55.654Z,99.90
2023-03-01T06:16:23.928Z,99.90
2023-03-01T06:18:52.089Z,99.90
2023-03-01T06:21:20.377Z,99.90
2023-03-01T06:23:48.668Z,99.90
2023-03-01T06:26:16.796Z,99.90
2023-03-01T06:28:47.642Z,99.90
2023-03-01T06:31:16.018Z,99.90
2023-03-01T06:33:45.746Z,99.90
2023-03-01T06:36:14.018Z,99.90
2023-03-01T06:38:42.606Z,99.90
2023-03-01T06:41:10.868Z,99.90
2023-03-01T06:43:39.138Z,99.90
2023-03-01T06:46:09.305Z,99.90
2023-03-01T06:48:37.678Z,99.90
2023-03-01T06:51:06.131Z,99.90
2023-03-01T06:53:34.330Z,99.90
2023-03-01T06:56:02.582Z,99.90
2023-03-01T06:58:30.795Z,99.90
2023-03-01T07:00:59.135Z,99.90
2023-03-01T07:03:28.790Z,99.90
2023-03-01T07:05:57.168Z,99.90
2023-03-01T07:08:25.365Z,99.90
2023-03-01T07:10:57.841Z,99.90
2023-03-01T07:13:26.380Z,99.90
2023-03-01T07:15:54.633Z,99.90
2023-03-01T07:18:22.967Z,99.90
2023-03-01T07:20:52.687Z,99.90
2023-03-01T07:23:20.968Z,99.90
2023-03-01T07:25:54.577Z,99.90
2023-03-01T07:28:24.230Z,99.90
2023-03-01T07:30:52.542Z,99.90
2023-03-01T07:33:20.769Z,99.90
2023-03-01T07:35:49.212Z,99.90
2023-03-01T07:38:18.831Z,99.90
2023-03-01T07:40:47.012Z,99.90
2023-03-01T07:43:15.282Z,99.90
2023-03-01T07:45:43.475Z,99.90
2023-03-01T07:48:12.706Z,99.90
2023-03-01T07:50:40.964Z,99.90
2023-03-01T07:53:09.198Z,99.90
2023-03-01T07:55:39.261Z,99.90
2023-03-01T07:58:07.682Z,99.90
2023-03-01T08:00:35.968Z,99.90
2023-03-01T08:03:04.504Z,99.90
2023-03-01T08:05:32.739Z,99.90
2023-03-01T08:08:01.143Z,99.90
2023-03-01T08:10:29.520Z,99.90
2023-03-01T08:12:59.045Z,99.90
2023-03-01T08:15:27.402Z,99.90
2023-03-01T08:17:55.592Z,99.90
2023-03-01T08:20:24.009Z,99.90
2023-03-01T08:22:52.155Z,99.90
2023-03-01T08:25:20.354Z,99.90
2023-03-01T08:27:48.607Z,99.90
2023-03-01T08:30:19.634Z,99.90
2023-03-01T08:32:48.059Z,99.90
2023-03-01T08:35:16.524Z,99.90
2023-03-01T08:37:44.981Z,99.90
2023-03-01T08:40:14.611Z,99.90
2023-03-01T08:42:43.693Z,99.90
2023-03-01T08:45:13.580Z,99.90
2023-03-01T08:47:43.408Z,99.90
2023-03-01T08:50:12.221Z,99.90
2023-03-01T08:52:40.570Z,99.90
2023-03-01T08:55:10.181Z,99.90
2023-03-01T08:57:38.422Z,99.90
2023-03-01T09:00:10.147Z,99.90
2023-03-01T09:02:38.849Z,99.90
2023-03-01T09:05:09.429Z,99.90
2023-03-01T09:07:37.626Z,99.90
2023-03-01T09:10:06.727Z,99.90
2023-03-01T09:12:35.162Z,99.90
2023-03-01T09:15:03.443Z,99.90
2023-03-01T09:17:31.682Z,99.90
2023-03-01T09:20:00.665Z,99.90
2023-03-01T09:22:30.233Z,99.90
2023-03-01T09:25:00.238Z,99.90
2023-03-01T09:27:28.604Z,99.90
2023-03-01T09:29:57.260Z,99.90
2023-03-01T09:32:25.578Z,99.90
2023-03-01T09:35:08.801Z,99.90
2023-03-01T09:37:39.668Z,99.90
2023-03-01T09:40:16.635Z,99.90
2023-03-01T09:42:57.000Z,99.90
2023-03-01T09:45:35.276Z,99.90
2023-03-01T09:48:06.227Z,99.90
2023-03-01T09:50:38.238Z,99.90
2023-03-01T09:53:12.071Z,99.90
2023-03-01T09:55:45.150Z,99.90
2023-03-01T09:58:41.615Z,99.90
2023-03-01T10:01:35.704Z,99.90
2023-03-01T10:04:28.428Z,99.90
2023-03-01T10:07:08.140Z,99.90
2023-03-01T10:09:40.328Z,99.90
2023-03-01T10:12:12.901Z,99.90
2023-03-01T10:14:47.327Z,99.90
2023-03-01T10:17:26.504Z,99.90
2023-03-01T10:19:54.805Z,99.90
2023-03-01T10:22:26.770Z,99.90
2023-03-01T10:24:58.512Z,99.90
2023-03-01T10:27:29.797Z,99.90
2023-03-01T10:30:08.098Z,99.90
2023-03-01T10:32:36.972Z,99.90
2023-03-01T10:35:18.935Z,99.90
2023-03-01T10:38:04.175Z,99.90
2023-03-01T10:40:34.434Z,99.90
2023-03-01T10:43:05.632Z,99.90
2023-03-01T10:45:37.664Z,99.90
2023-03-01T10:48:07.895Z,99.90
2023-03-01T10:50:38.688Z,99.90
2023-03-01T10:53:25.096Z,99.90
2023-03-01T10:56:02.264Z,99.90
2023-03-01T10:58:31.928Z,99.90
2023-03-01T11:01:02.758Z,99.90
2023-03-01T11:03:33.738Z,99.90
2023-03-01T11:06:05.924Z,99.90
2023-03-01T11:08:45.416Z,99.90
2023-03-01T11:11:26.126Z,99.90
2023-03-01T11:13:57.902Z,99.90
2023-03-01T11:16:29.476Z,99.90
2023-03-01T11:19:03.367Z,99.90
2023-03-01T11:21:34.820Z,99.90
2023-03-01T11:24:05.833Z,99.90
2023-03-01T11:26:39.733Z,99.90
2023-03-01T11:29:15.190Z,99.90
2023-03-01T11:31:57.230Z,99.90
2023-03-01T11:34:36.499Z,99.90
2023-03-01T11:37:10.475Z,99.90
2023-03-01T11:39:43.672Z,99.90
2023-03-01T11:42:19.513Z,99.90
2023-03-01T11:44:51.897Z,99.90
2023-03-01T11:47:33.572Z,99.90
2023-03-01T11:50:18.340Z,99.90
2023-03-01T11:53:02.980Z,99.90
2023-03-01T11:55:45.728Z,99.90
2023-03-01T11:58:29.458Z,99.90
2023-03-01T12:01:11.469Z,99.90
2023-03-01T12:04:03.055Z,99.90
2023-03-01T12:06:51.991Z,99.90
2023-03-01T12:09:33.141Z,99.90
2023-03-01T12:12:28.216Z,99.90
2023-03-01T12:15:12.137Z,99.90
2023-03-01T12:18:08.588Z,99.90
2023-03-01T12:20:49.133Z,99.90
2023-03-01T12:23:53.224Z,99.90
2023-03-01T12:26:28.835Z,99.90
2023-03-01T12:29:13.098Z,99.90
2023-03-01T12:32:19.064Z,99.90
2023-03-01T12:35:28.928Z,99.90
2023-03-01T12:38:03.714Z,99.90
2023-03-01T12:40:46.066Z,99.90
2023-03-01T12:43:32.113Z,99.90
2023-03-01T12:46:15.720Z,99.90
2023-03-01T12:48:57.614Z,99.90
2023-03-01T12:51:28.893Z,99.90
2023-03-01T12:53:59.411Z,99.90
2023-03-01T12:56:32.603Z,99.90
2023-03-01T12:59:07.155Z,99.90
2023-03-01T13:01:45.054Z,99.90
2023-03-01T13:04:40.889Z,99.90
2023-03-01T13:07:25.785Z,99.90
2023-03-01T13:10:02.483Z,99.90
2023-03-01T13:12:55.337Z,99.90
2023-03-01T13:15:34.878Z,99.90
2023-03-01T13:18:05.625Z,99.90
2023-03-01T13:20:47.481Z,99.90
2023-03-01T13:23:27.933Z,99.90
2023-03-01T13:26:09.782Z,99.90
2023-03-01T13:29:06.085Z,99.90
2023-03-01T13:32:05.925Z,99.90
2023-03-01T13:34:46.297Z,99.90
2023-03-01T13:37:33.359Z,99.90
2023-03-01T13:40:32.054Z,99.90
2023-03-01T13:43:30.402Z,99.80
2023-03-01T13:46:00.341Z,99.70
2023-03-01T13:48:31.362Z,99.90
2023-03-01T13:51:03.833Z,99.90
2023-03-01T13:53:37.495Z,99.90
2023-03-01T13:56:11.227Z,99.90
2023-03-01T13:58:54.898Z,99.90
2023-03-01T14:01:26.914Z,99.90
2023-03-01T14:03:55.866Z,99.90
2023-03-01T14:06:25.698Z,99.90
2023-03-01T14:09:07.085Z,99.80
2023-03-01T14:12:02.127Z,99.90
2023-03-01T14:14:54.932Z,99.90
2023-03-01T14:17:46.189Z,99.80
2023-03-01T14:20:19.553Z,99.70
2023-03-01T14:22:49.729Z,99.50
2023-03-01T14:25:28.893Z,99.30
2023-03-01T14:28:00.507Z,99.70
2023-03-01T14:30:35.353Z,99.70
2023-03-01T14:33:06.495Z,99.80
2023-03-01T14:35:37.229Z,99.50
2023-03-01T14:38:05.872Z,99.40
2023-03-01T14:40:38.827Z,99.50
2023-03-01T14:43:13.507Z,99.00
2023-03-01T14:45:41.855Z,99.00
2023-03-01T14:48:11.035Z,98.80
2023-03-01T14:50:44.635Z,99.00
2023-03-01T14:53:20.561Z,98.30
2023-03-01T14:55:54.008Z,98.30
2023-03-01T14:58:24.990Z,97.70
2023-03-01T15:00:56.027Z,97.40
2023-03-01T15:03:32.673Z,96.50
2023-03-01T15:06:04.257Z,96.90
2023-03-01T15:08:35.475Z,96.20
2023-03-01T15:11:09.204Z,95.30
2023-03-01T15:13:38.194Z,95.10
2023-03-01T15:16:09.938Z,94.90
2023-03-01T15:18:39.203Z,93.20
2023-03-01T15:21:10.167Z,92.70
2023-03-01T15:23:41.341Z,92.70
2023-03-01T15:26:25.703Z,92.60
2023-03-01T15:28:59.093Z,92.70
2023-03-01T15:31:30.179Z,93.00
2023-03-01T15:34:23.252Z,92.60
2023-03-01T15:36:52.918Z,93.10
2023-03-01T15:39:39.909Z,92.40
2023-03-01T15:42:12.383Z,92.70
2023-03-01T15:44:44.300Z,92.50
2023-03-01T15:47:30.995Z,92.50
2023-03-01T15:50:01.763Z,92.90
2023-03-01T15:52:36.045Z,92.80
2023-03-01T15:55:07.552Z,92.70
2023-03-01T15:57:37.091Z,93.40
2023-03-01T16:00:12.275Z,93.90
2023-03-01T16:02:40.571Z,93.90
2023-03-01T16:05:17.285Z,94.20
2023-03-01T16:07:45.516Z,94.30
2023-03-01T16:10:14.323Z,93.50
2023-03-01T16:12:44.004Z,93.30
2023-03-01T16:15:19.180Z,93.50
2023-03-01T16:17:47.529Z,94.20
2023-03-01T16:20:28.579Z,94.20
2023-03-01T16:23:00.984Z,94.90
2023-03-01T16:25:29.488Z,95.40
2023-03-01T16:28:01.129Z,95.20
2023-03-01T16:30:30.214Z,95.60
2023-03-01T16:32:59.348Z,95.40
2023-03-01T16:35:28.290Z,95.60
2023-03-01T16:37:56.536Z,95.90
2023-03-01T16:40:26.982Z,95.70
2023-03-01T16:42:56.197Z,96.10
2023-03-01T16:45:25.870Z,96.00
2023-03-01T16:47:56.061Z,96.30
2023-03-01T16:50:24.669Z,96.30
2023-03-01T16:52:52.899Z,95.80
2023-03-01T16:55:21.458Z,95.90
2023-03-01T16:57:50.037Z,95.90
2023-03-01T17:00:18.940Z,96.10
2023-03-01T17:02:48.601Z,96.20
2023-03-01T17:05:16.894Z,96.10
2023-03-01T17:07:45.077Z,96.20
2023-03-01T17:10:13.710Z,96.70
2023-03-01T17:12:42.251Z,96.60
2023-03-01T17:15:12.823Z,96.80
2023-03-01T17:17:41.326Z,97.10
2023-03-01T17:20:12.693Z,96.90
2023-03-01T17:22:40.912Z,97.10
2023-03-01T17:25:11.125Z,97.60
2023-03-01T17:27:39.666Z,98.10
2023-03-01T17:30:13.545Z,98.50
2023-03-01T17:32:42.691Z,99.10
2023-03-01T17:35:13.050Z,99.50
2023-03-01T17:37:46.478Z,99.90
2023-03-01T17:40:15.287Z,99.90
2023-03-01T17:42:43.479Z,99.90
2023-03-01T17:45:12.592Z,99.90
2023-03-01T17:47:40.859Z,99.90
2023-03-01T17:50:10.346Z,99.90
2023-03-01T17:52:41.287Z,99.90
2023-03-01T17:55:10.807Z,99.90
2023-03-01T17:57:40.652Z,99.90
2023-03-01T18:00:12.400Z,99.90
2023-03-01T18:02:42.880Z,99.90
2023-03-01T18:05:11.908Z,99.90
2023-03-01T18:07:41.523Z,99.90
2023-03-01T18:10:11.075Z,99.90
2023-03-01T18:12:39.753Z,99.90
2023-03-01T18:15:09.424Z,99.90
2023-03-01T18:17:37.708Z,99.90
2023-03-01T18:20:07.724Z,99.90
2023-03-01T18:22:36.060Z,99.90
2023-03-01T18:25:06.142Z,99.90
2023-03-01T18:27:36.978Z,99.90
2023-03-01T18:30:06.177Z,99.90
2023-03-01T18:32:34.659Z,99.90
2023-03-01T18:35:02.908Z,99.90
2023-03-01T18:37:31.238Z,99.90
2023-03-01T18:39:59.604Z,99.90
2023-03-01T18:42:29.195Z,99.90
2023-03-01T18:44:57.431Z,99.90
2023-03-01T18:47:25.677Z,99.90
2023-03-01T18:49:53.862Z,99.90
2023-03-01T18:52:22.085Z,99.90
2023-03-01T18:54:50.355Z,99.90
2023-03-01T18:57:18.593Z,99.90
2023-03-01T18:59:48.241Z,99.90
2023-03-01T19:02:16.569Z,99.90
2023-03-01T19:04:44.730Z,99.90
2023-03-01T19:07:12.967Z,99.90
2023-03-01T19:09:41.802Z,99.90
2023-03-01T19:12:10.031Z,99.90
2023-03-01T19:14:38.353Z,99.90
2023-03-01T19:17:07.916Z,99.90
2023-03-01T19:19:36.635Z,99.90
2023-03-01T19:22:06.370Z,99.90
2023-03-01T19:24:34.776Z,99.90
2023-03-01T19:27:03.064Z,99.90
2023-03-01T19:29:31.364Z,99.90
2023-03-01T19:31:59.654Z,99.90
2023-03-01T19:34:29.356Z,99.90
2023-03-01T19:36:57.569Z,99.90
2023-03-01T19:39:27.426Z,99.90
2023-03-01T19:41:55.640Z,99.90
2023-03-01T19:44:25.134Z,99.90
2023-03-01T19:46:54.174Z,99.90
2023-03-01T19:49:22.599Z,99.90
2023-03-01T19:51:52.929Z,99.90
2023-03-01T19:54:21.820Z,99.90
2023-03-01T19:56:51.438Z,99.90
2023-03-01T19:59:24.388Z,99.90
2023-03-01T20:01:53.261Z,99.90
2023-03-01T20:04:21.654Z,99.90
2023-03-01T20:06:51.838Z,99.90
2023-03-01T20:09:22.132Z,99.90
2023-03-01T20:11:51.520Z,99.90
2023-03-01T20:14:23.252Z,99.90
2023-03-01T20:16:51.856Z,99.90
2023-03-01T20:19:20.064Z,99.90
2023-03-01T20:21:48.426Z,99.90
2023-03-01T20:24:18.396Z,99.90
2023-03-01T20:26:46.719Z,99.90
2023-03-01T20:29:15.104Z,99.90
2023-03-01T20:31:43.454Z,99.90
2023-03-01T20:34:11.984Z,99.90
2023-03-01T20:36:41.158Z,99.90
2023-03-01T20:39:11.696Z,99.90
2023-03-01T20:41:41.628Z,99.90
2023-03-01T20:44:10.489Z,99.90
2023-03-01T20:46:39.418Z,99.90
2023-03-01T20:49:07.847Z,99.90
2023-03-01T20:51:36.447Z,99.90
2023-03-01T20:54:05.109Z,99.90
2023-03-01T20:56:33.712Z,99.90
2023-03-01T20:59:08.340Z,99.90
2023-03-01T21:01:36.818Z,99.90
2023-03-01T21:04:05.234Z,99.90
2023-03-01T21:06:33.704Z,99.90
2023-03-01T21:09:02.257Z,99.90
2023-03-01T21:11:30.550Z,99.90
2023-03-01T21:13:59.165Z,99.90
2023-03-01T21:16:29.019Z,99.90
2023-03-01T21:18:57.212Z,99.90
2023-03-01T21:21:25.561Z,99.90
2023-03-01T21:23:55.452Z,99.90
2023-03-01T21:26:25.465Z,99.90
2023-03-01T21:28:56.825Z,99.90
2023-03-01T21:31:27.574Z,99.90
2023-03-01T21:33:58.771Z,99.90
2023-03-01T21:36:29.005Z,99.90
2023-03-01T21:38:59.460Z,99.90
2023-03-01T21:41:29.413Z,99.90
2023-03-01T21:44:00.415Z,99.90
2023-03-01T21:46:36.630Z,99.90
2023-03-01T21:49:07.635Z,99.90
2023-03-01T21:51:36.591Z,99.90
2023-03-01T21:54:05.619Z,99.90
2023-03-01T21:56:38.873Z,99.90
2023-03-01T21:59:08.984Z,99.90
2023-03-01T22:01:37.524Z,99.90
2023-03-01T22:04:07.300Z,99.90
2023-03-01T22:06:40.522Z,99.90
2023-03-01T22:09:12.889Z,99.90
2023-03-01T22:11:42.704Z,99.90
2023-03-01T22:14:13.559Z,99.90
2023-03-01T22:16:45.497Z,99.90
2023-03-01T22:19:16.941Z,99.90
2023-03-01T22:21:47.129Z,99.90
2023-03-01T22:24:15.856Z,99.90
2023-03-01T22:26:46.128Z,99.90
2023-03-01T22:29:16.432Z,99.90
2023-03-01T22:31:45.700Z,99.90
2023-03-01T22:34:17.302Z,99.90
2023-03-01T22:36:46.142Z,99.90
2023-03-01T22:39:16.615Z,99.90
2023-03-01T22:41:46.941Z,99.90
2023-03-01T22:44:17.226Z,99.90
2023-03-01T22:46:45.807Z,99.90
2023-03-01T22:49:17.905Z,99.90
2023-03-01T22:51:47.539Z,99.90
2023-03-01T22:54:17.319Z,99.90
2023-03-01T22:56:46.488Z,99.90
2023-03-01T22:59:18.934Z,99.90
2023-03-01T23:01:48.325Z,99.90
2023-03-01T23:04:19.190Z,99.90
2023-03-01T23:06:54.881Z,99.90
2023-03-01T23:09:26.456Z,99.90
2023-03-01T23:11:55.792Z,99.90
2023-03-01T23:14:24.570Z,99.90
2023-03-01T23:16:53.939Z,99.90
2023-03-01T23:19:24.573Z,99.90
2023-03-01T23:21:54.471Z,99.90
2023-03-01T23:24:32.040Z,99.90
2023-03-01T23:27:01.543Z,99.90
2023-03-01T23:29:29.946Z,99.90
2023-03-01T23:31:58.603Z,99.90
2023-03-01T23:34:28.674Z,99.90
2023-03-01T23:36:58.603Z,99.90
2023-03-01T23:39:27.416Z,99.90
2023-03-01T23:41:55.730Z,99.90
2023-03-01T23:44:24.491Z,99.90
2023-03-01T23:46:53.005Z,99.90
2023-03-01T23:49:23.173Z,99.90
2023-03-01T23:51:53.103Z,99.90
2023-03-01T23:54:23.210Z,99.90
2023-03-01T23:56:51.719Z,99.90
2023-03-01T23:59:22.952Z,99.90
